Lockwood, Ohio
Current Conditions -  °F | °C
As of 1:51 AM on Sunday 23 Nov 2014 (Local Time) from KYNG Reporting Station
Overcast Overcast  
Wind Chill: 43°   Ceiling: 3700
Heat Index: 48°   Visibility: 10mi
Dew Point: 32°   Wind: 10mph
Humidity: 54%   Direction: 210°SSW
Pressure: 30.05"   Gusts: NA
Location:  41.4555°N, 80.829°W
Report Text: KYNG 230651Z 21009KT 10SM OVC037 09/00 A3005 RMK AO2 SLP182 T00890000
Loading
Personal Weather Stations






























Interactive Weather Map New forecast layout! Learn more

10-Day Weather Forecast

Advertisements
Track Severe Weather on mobile